createdAt,value
2023-07-26T00:00:59.787Z,10.43
2023-07-26T00:03:28.208Z,10.27
2023-07-26T00:05:56.500Z,10.70
2023-07-26T00:08:24.688Z,10.70
2023-07-26T00:10:54.398Z,9.80
2023-07-26T00:13:22.736Z,10.40
2023-07-26T00:15:51.048Z,10.60
2023-07-26T00:18:19.356Z,11.23
2023-07-26T00:20:47.644Z,12.07
2023-07-26T00:23:15.899Z,11.03
2023-07-26T00:25:46.544Z,10.90
2023-07-26T00:28:16.079Z,10.10
2023-07-26T00:30:45.765Z,10.67
2023-07-26T00:33:14.140Z,11.20
2023-07-26T00:35:43.736Z,11.00
2023-07-26T00:38:12.437Z,11.40
2023-07-26T00:40:41.191Z,12.03
2023-07-26T00:43:09.678Z,11.30
2023-07-26T00:45:41.503Z,9.80
2023-07-26T00:48:10.276Z,10.43
2023-07-26T00:50:39.981Z,10.87
2023-07-26T00:53:08.355Z,10.60
2023-07-26T00:55:37.692Z,10.53
2023-07-26T00:58:06.029Z,10.83
2023-07-26T01:00:34.414Z,10.07
2023-07-26T01:03:04.315Z,10.77
2023-07-26T01:05:38.953Z,10.80
2023-07-26T01:08:15.798Z,10.90
2023-07-26T01:10:51.410Z,10.80
2023-07-26T01:13:26.481Z,10.20
2023-07-26T01:15:55.682Z,10.50
2023-07-26T01:18:25.280Z,10.17
2023-07-26T01:20:53.559Z,10.67
2023-07-26T01:23:25.361Z,11.57
2023-07-26T01:25:56.545Z,10.93
2023-07-26T01:28:24.798Z,10.33
2023-07-26T01:30:54.117Z,11.70
2023-07-26T01:33:23.169Z,11.70
2023-07-26T01:35:52.829Z,12.13
2023-07-26T01:38:22.982Z,11.33
2023-07-26T01:40:52.724Z,11.87
2023-07-26T01:43:21.170Z,10.57
2023-07-26T01:45:49.462Z,12.03
2023-07-26T01:48:18.430Z,10.87
2023-07-26T01:50:46.750Z,11.90
2023-07-26T01:53:15.108Z,11.30
2023-07-26T01:55:43.331Z,11.43
2023-07-26T01:58:12.962Z,11.30
2023-07-26T02:00:41.345Z,11.50
2023-07-26T02:03:09.630Z,11.00
2023-07-26T02:05:43.855Z,11.17
2023-07-26T02:08:12.170Z,12.00
2023-07-26T02:10:40.973Z,11.73
2023-07-26T02:13:09.634Z,12.67
2023-07-26T02:15:39.339Z,11.33
2023-07-26T02:18:10.311Z,12.30
2023-07-26T02:20:38.559Z,11.90
2023-07-26T02:23:07.194Z,12.60
2023-07-26T02:25:36.568Z,12.07
2023-07-26T02:28:05.230Z,11.10
2023-07-26T02:30:34.115Z,11.40
2023-07-26T02:33:06.702Z,12.17
2023-07-26T02:35:35.283Z,11.70
2023-07-26T02:38:05.802Z,11.87
2023-07-26T02:40:34.013Z,13.63
2023-07-26T02:43:02.275Z,12.43
2023-07-26T02:45:30.501Z,12.30
2023-07-26T02:47:58.831Z,11.77
2023-07-26T02:50:28.460Z,12.60
2023-07-26T02:52:56.658Z,12.17
2023-07-26T02:55:24.922Z,12.40
2023-07-26T02:57:53.206Z,14.00
2023-07-26T03:00:21.728Z,12.73
2023-07-26T03:02:50.141Z,11.80
2023-07-26T03:05:18.570Z,11.33
2023-07-26T03:07:48.230Z,12.30
2023-07-26T03:10:16.595Z,13.23
2023-07-26T03:12:45.054Z,13.20
2023-07-26T03:15:13.676Z,12.00
2023-07-26T03:17:42.169Z,12.10
2023-07-26T03:20:12.490Z,12.40
2023-07-26T03:22:40.792Z,12.43
2023-07-26T03:25:10.844Z,13.17
2023-07-26T03:27:42.098Z,11.90
2023-07-26T03:30:10.814Z,14.10
2023-07-26T03:32:39.163Z,11.90
2023-07-26T03:35:08.522Z,12.07
2023-07-26T03:37:36.850Z,12.33
2023-07-26T03:40:06.148Z,12.53
2023-07-26T03:42:35.855Z,12.70
2023-07-26T03:45:04.210Z,12.23
2023-07-26T03:47:32.982Z,12.43
2023-07-26T03:50:01.837Z,12.37
2023-07-26T03:52:32.253Z,11.97
2023-07-26T03:55:00.573Z,11.87
2023-07-26T03:57:28.869Z,13.00
2023-07-26T03:59:58.442Z,11.97
2023-07-26T04:02:27.063Z,12.20
2023-07-26T04:04:55.563Z,11.47
2023-07-26T04:07:23.892Z,10.83
2023-07-26T04:09:52.123Z,11.97
2023-07-26T04:12:20.472Z,12.67
2023-07-26T04:14:48.943Z,12.43
2023-07-26T04:17:18.867Z,11.40
2023-07-26T04:19:47.114Z,12.30
2023-07-26T04:22:15.396Z,13.00
2023-07-26T04:24:44.324Z,12.23
2023-07-26T04:27:12.858Z,12.60
2023-07-26T04:29:43.027Z,12.77
2023-07-26T04:32:11.386Z,13.17
2023-07-26T04:34:40.936Z,13.50
2023-07-26T04:37:10.141Z,12.60
2023-07-26T04:39:38.362Z,13.13
2023-07-26T04:42:07.096Z,13.73
2023-07-26T04:44:35.268Z,13.03
2023-07-26T04:47:03.597Z,13.50
2023-07-26T04:49:32.029Z,13.00
2023-07-26T04:52:01.614Z,13.20
2023-07-26T04:54:29.893Z,13.10
2023-07-26T04:56:58.195Z,14.63
2023-07-26T04:59:26.485Z,12.90
2023-07-26T05:01:54.642Z,15.67
2023-07-26T05:04:22.983Z,12.40
2023-07-26T05:06:51.289Z,12.17
2023-07-26T05:09:23.359Z,12.30
2023-07-26T05:11:51.610Z,14.37
2023-07-26T05:14:21.753Z,11.03
2023-07-26T05:16:49.973Z,13.30
2023-07-26T05:19:18.273Z,12.10
2023-07-26T05:21:46.550Z,12.50
2023-07-26T05:24:14.929Z,12.50
2023-07-26T05:26:44.674Z,13.33
2023-07-26T05:29:12.940Z,14.17
2023-07-26T05:31:41.270Z,17.17
2023-07-26T05:34:09.759Z,13.40
2023-07-26T05:36:38.160Z,12.90
2023-07-26T05:39:06.509Z,13.97
2023-07-26T05:41:35.112Z,13.00
2023-07-26T05:44:05.491Z,13.13
2023-07-26T05:46:34.269Z,12.50
2023-07-26T05:49:02.629Z,13.23
2023-07-26T05:51:31.195Z,13.40
2023-07-26T05:53:59.677Z,12.70
2023-07-26T05:56:28.540Z,14.47
2023-07-26T05:58:56.776Z,12.83
2023-07-26T06:01:26.513Z,13.43
2023-07-26T06:03:54.857Z,13.13
2023-07-26T06:06:23.137Z,14.03
2023-07-26T06:08:52.186Z,12.60
2023-07-26T06:11:20.535Z,12.10
2023-07-26T06:13:48.800Z,14.13
2023-07-26T06:16:17.399Z,16.07
2023-07-26T06:18:47.174Z,16.60
2023-07-26T06:21:16.344Z,15.40
2023-07-26T06:23:44.552Z,15.93
2023-07-26T06:26:12.970Z,15.20
2023-07-26T06:28:42.353Z,16.03
2023-07-26T06:31:10.691Z,16.80
2023-07-26T06:33:39.213Z,13.57
2023-07-26T06:36:09.087Z,10.97
2023-07-26T06:38:37.473Z,11.03
2023-07-26T06:41:06.550Z,14.07
2023-07-26T06:43:34.879Z,14.60
2023-07-26T06:46:03.219Z,11.83
2023-07-26T06:48:31.686Z,12.97
2023-07-26T06:50:59.959Z,10.37
2023-07-26T06:53:29.856Z,10.73
2023-07-26T06:55:59.813Z,10.67
2023-07-26T06:58:28.216Z,10.80
2023-07-26T07:00:57.404Z,10.60
2023-07-26T07:03:25.765Z,12.73
2023-07-26T07:05:54.025Z,12.53
2023-07-26T07:08:22.392Z,10.20
2023-07-26T07:10:52.104Z,10.90
2023-07-26T07:13:20.305Z,10.57
2023-07-26T07:15:48.559Z,9.90
2023-07-26T07:18:16.915Z,10.80
2023-07-26T07:20:45.516Z,10.63
2023-07-26T07:23:13.821Z,9.93
2023-07-26T07:25:42.202Z,10.07
2023-07-26T07:28:11.984Z,11.20
2023-07-26T07:30:40.297Z,11.70
2023-07-26T07:33:08.568Z,10.93
2023-07-26T07:35:36.789Z,10.50
2023-07-26T07:38:05.135Z,10.67
2023-07-26T07:40:33.406Z,10.83
2023-07-26T07:43:01.671Z,12.07
2023-07-26T07:45:31.418Z,9.83
2023-07-26T07:47:59.921Z,9.93
2023-07-26T07:50:28.354Z,10.33
2023-07-26T07:52:56.682Z,12.67
2023-07-26T07:55:25.014Z,10.87
2023-07-26T07:57:53.374Z,11.27
2023-07-26T08:00:21.737Z,10.20
2023-07-26T08:02:51.410Z,11.50
2023-07-26T08:05:19.859Z,9.80
2023-07-26T08:07:48.130Z,10.33
2023-07-26T08:10:16.495Z,11.63
2023-07-26T08:12:44.751Z,11.70
2023-07-26T08:15:13.168Z,11.00
2023-07-26T08:17:41.930Z,9.97
2023-07-26T08:20:13.095Z,9.40
2023-07-26T08:22:42.585Z,10.80
2023-07-26T08:25:11.992Z,8.90
2023-07-26T08:27:40.479Z,7.57
2023-07-26T08:30:10.147Z,7.53
2023-07-26T08:32:38.443Z,8.30
2023-07-26T08:35:07.656Z,8.03
2023-07-26T08:37:37.308Z,8.57
2023-07-26T08:40:06.521Z,7.50
2023-07-26T08:42:34.963Z,9.07
2023-07-26T08:45:04.649Z,7.77
2023-07-26T08:47:35.297Z,9.20
2023-07-26T08:50:05.451Z,8.17
2023-07-26T08:52:34.707Z,7.00
2023-07-26T08:55:04.359Z,8.70
2023-07-26T08:57:32.832Z,7.77
2023-07-26T09:00:01.245Z,7.47
2023-07-26T09:02:30.769Z,6.80
2023-07-26T09:04:59.775Z,8.00
2023-07-26T09:07:27.987Z,7.80
2023-07-26T09:09:56.306Z,7.60
2023-07-26T09:12:29.830Z,7.33
2023-07-26T09:14:59.383Z,8.97
2023-07-26T09:17:41.779Z,8.20
2023-07-26T09:20:22.110Z,9.20
2023-07-26T09:22:59.586Z,9.30
2023-07-26T09:25:35.806Z,7.83
2023-07-26T09:28:06.313Z,9.20
2023-07-26T09:30:38.587Z,7.93
2023-07-26T09:33:08.764Z,8.10
2023-07-26T09:35:44.548Z,8.37
2023-07-26T09:38:13.217Z,8.40
2023-07-26T09:40:41.630Z,8.80
2023-07-26T09:43:11.503Z,9.27
2023-07-26T09:45:42.143Z,7.50
2023-07-26T09:53:23.672Z,8.40
2023-07-26T09:58:29.353Z,7.80
2023-07-26T10:01:02.397Z,11.73
2023-07-26T10:03:33.083Z,8.07
2023-07-26T10:06:03.241Z,8.00
2023-07-26T10:08:31.846Z,8.83
2023-07-26T10:11:01.186Z,8.63
2023-07-26T10:13:33.486Z,8.30
2023-07-26T10:16:03.253Z,7.30
2023-07-26T10:18:33.129Z,8.07
2023-07-26T10:21:04.593Z,7.30
2023-07-26T10:23:33.160Z,8.50
2023-07-26T10:26:04.992Z,7.80
2023-07-26T10:28:35.820Z,9.13
2023-07-26T10:31:04.754Z,7.90
2023-07-26T10:33:33.434Z,8.00
2023-07-26T10:36:05.683Z,8.40
2023-07-26T10:38:34.240Z,8.20
2023-07-26T10:41:22.491Z,7.80
2023-07-26T10:43:52.608Z,8.13
2023-07-26T10:46:21.459Z,7.97
2023-07-26T10:48:49.918Z,7.17
2023-07-26T10:51:32.515Z,7.37
2023-07-26T10:54:01.288Z,6.50
2023-07-26T10:56:34.066Z,7.43
2023-07-26T10:59:28.636Z,7.07
2023-07-26T11:02:05.225Z,6.50
2023-07-26T11:04:33.662Z,7.27
2023-07-26T11:07:04.574Z,7.53
2023-07-26T11:09:35.172Z,8.23
2023-07-26T11:12:04.962Z,8.60
2023-07-26T11:14:37.412Z,8.20
2023-07-26T11:17:11.840Z,7.67
2023-07-26T11:19:47.921Z,7.33
2023-07-26T11:22:16.685Z,7.10
2023-07-26T11:24:45.180Z,8.20
2023-07-26T11:27:13.516Z,8.20
2023-07-26T11:29:43.271Z,7.63
2023-07-26T11:32:11.710Z,7.70
2023-07-26T11:34:40.068Z,7.87
2023-07-26T11:37:09.603Z,6.80
2023-07-26T11:39:38.011Z,7.87
2023-07-26T11:42:07.258Z,7.63
2023-07-26T11:44:36.537Z,6.90
2023-07-26T11:47:06.758Z,7.00
2023-07-26T11:49:35.452Z,8.30
2023-07-26T11:52:04.386Z,7.60
2023-07-26T11:54:33.677Z,7.67
2023-07-26T11:57:01.988Z,7.33
2023-07-26T11:59:31.762Z,7.40
2023-07-26T12:02:00.156Z,7.63
2023-07-26T12:04:30.652Z,7.50
2023-07-26T12:06:59.792Z,7.60
2023-07-26T12:09:28.361Z,8.43
2023-07-26T12:11:56.920Z,7.27
2023-07-26T12:14:25.621Z,8.00
2023-07-26T12:16:55.147Z,7.53
2023-07-26T12:19:27.771Z,6.40
2023-07-26T12:21:57.422Z,7.03
2023-07-26T12:24:28.819Z,6.87
2023-07-26T12:27:01.390Z,7.90
2023-07-26T12:29:31.769Z,7.40
2023-07-26T12:32:06.112Z,8.10
2023-07-26T12:34:36.351Z,7.70
2023-07-26T12:37:06.965Z,8.60
2023-07-26T12:39:35.274Z,7.63
2023-07-26T12:42:03.497Z,8.67
2023-07-26T12:44:31.895Z,7.97
2023-07-26T12:47:28.185Z,7.10
2023-07-26T12:49:48.893Z,7.00
2023-07-26T12:52:18.705Z,8.43
2023-07-26T12:54:46.922Z,8.50
2023-07-26T12:57:15.316Z,8.27
2023-07-26T12:59:43.723Z,7.90
2023-07-26T13:02:12.228Z,7.83
2023-07-26T13:04:40.595Z,7.80
2023-07-26T13:07:08.869Z,7.97
2023-07-26T13:09:38.541Z,9.07
2023-07-26T13:12:07.130Z,7.50
2023-07-26T13:14:35.237Z,6.90
2023-07-26T13:17:03.687Z,7.23
2023-07-26T13:19:31.988Z,7.90
2023-07-26T13:22:00.244Z,8.07
2023-07-26T13:24:28.518Z,7.50
2023-07-26T13:26:58.547Z,7.73
2023-07-26T13:29:26.794Z,6.97
2023-07-26T13:31:54.999Z,7.80
2023-07-26T13:34:24.034Z,7.87
2023-07-26T13:36:57.038Z,7.87
2023-07-26T13:39:25.305Z,8.80
2023-07-26T13:41:53.590Z,8.63
2023-07-26T13:44:23.156Z,7.17
2023-07-26T13:46:51.400Z,7.57
2023-07-26T13:49:20.636Z,7.40
2023-07-26T13:51:48.936Z,7.20
2023-07-26T13:54:17.154Z,7.47
2023-07-26T13:56:45.481Z,6.70
2023-07-26T13:59:13.842Z,7.40
2023-07-26T14:01:43.622Z,7.57
2023-07-26T14:04:11.973Z,7.50
2023-07-26T14:06:40.312Z,6.83
2023-07-26T14:09:08.596Z,6.70
2023-07-26T14:11:36.932Z,6.13
2023-07-26T14:14:05.170Z,7.63
2023-07-26T14:16:33.753Z,7.73
2023-07-26T14:19:03.510Z,7.13
2023-07-26T14:21:31.840Z,7.37
2023-07-26T14:24:00.143Z,7.47
2023-07-26T14:26:28.365Z,7.30
2023-07-26T14:28:56.866Z,7.37
2023-07-26T14:31:25.603Z,6.93
2023-07-26T14:33:54.161Z,7.30
2023-07-26T14:36:24.057Z,7.07
2023-07-26T14:38:52.413Z,8.13
2023-07-26T14:41:20.742Z,7.43
2023-07-26T14:43:49.667Z,6.70
2023-07-26T14:46:17.979Z,7.03
2023-07-26T14:48:46.310Z,7.00
2023-07-26T14:51:14.528Z,7.07
2023-07-26T14:53:44.212Z,7.23
2023-07-26T14:56:12.642Z,6.50
2023-07-26T14:58:40.853Z,6.97
2023-07-26T15:01:09.138Z,7.20
2023-07-26T15:03:37.432Z,7.67
2023-07-26T15:06:05.962Z,7.40
2023-07-26T15:08:34.737Z,6.77
2023-07-26T15:11:04.334Z,7.37
2023-07-26T15:13:32.538Z,7.57
2023-07-26T15:16:00.792Z,7.10
2023-07-26T15:18:29.260Z,7.83
2023-07-26T15:20:57.723Z,8.73
2023-07-26T15:25:57.091Z,8.27
2023-07-26T15:28:26.629Z,7.20
2023-07-26T15:30:55.179Z,7.73
2023-07-26T15:33:25.227Z,7.50
2023-07-26T15:35:53.656Z,7.87
2023-07-26T15:38:25.106Z,7.23
2023-07-26T15:40:56.247Z,7.50
2023-07-26T15:43:26.325Z,7.87
2023-07-26T15:45:55.116Z,8.00
2023-07-26T15:48:23.860Z,7.97
2023-07-26T15:50:55.154Z,7.27
2023-07-26T15:53:24.172Z,7.80
2023-07-26T15:55:52.526Z,7.80
2023-07-26T15:58:27.899Z,8.30
2023-07-26T16:00:59.859Z,7.63
2023-07-26T16:11:02.079Z,8.10
2023-07-26T16:13:30.331Z,8.50
2023-07-26T16:18:31.751Z,9.40
2023-07-26T16:23:32.102Z,7.40
2023-07-26T16:26:00.500Z,8.17
2023-07-26T16:28:28.854Z,8.33
2023-07-26T16:30:57.303Z,10.00
2023-07-26T16:33:27.076Z,8.90
2023-07-26T16:35:56.233Z,8.90
2023-07-26T16:38:24.605Z,8.60
2023-07-26T16:40:55.728Z,7.13
2023-07-26T16:43:24.112Z,9.97
2023-07-26T16:45:52.512Z,7.90
2023-07-26T16:48:20.726Z,9.17
2023-07-26T16:50:50.358Z,8.57
2023-07-26T16:53:18.624Z,7.87
2023-07-26T16:55:46.858Z,9.00
2023-07-26T16:58:15.053Z,9.10
2023-07-26T17:00:43.675Z,8.67
2023-07-26T17:03:12.168Z,8.73
2023-07-26T17:05:40.559Z,8.60
2023-07-26T17:08:10.223Z,8.93
2023-07-26T17:10:38.473Z,7.73
2023-07-26T17:13:06.906Z,8.50
2023-07-26T17:15:35.227Z,9.00
2023-07-26T17:18:03.599Z,9.93
2023-07-26T17:20:31.958Z,8.47
2023-07-26T17:23:00.221Z,7.93
2023-07-26T17:25:29.955Z,8.40
2023-07-26T17:27:58.153Z,8.17
2023-07-26T17:30:26.559Z,8.63
2023-07-26T17:32:55.281Z,8.70
2023-07-26T17:35:23.553Z,9.00
2023-07-26T17:37:52.233Z,9.20
2023-07-26T17:40:21.847Z,8.40
2023-07-26T17:42:51.596Z,8.40
2023-07-26T17:45:20.244Z,9.60
2023-07-26T17:47:49.190Z,8.47
2023-07-26T17:50:17.572Z,9.10
2023-07-26T17:52:45.847Z,7.90
2023-07-26T17:55:15.889Z,8.77
2023-07-26T17:57:50.391Z,10.40
2023-07-26T18:00:25.580Z,9.53
2023-07-26T18:02:53.958Z,9.23
2023-07-26T18:05:22.403Z,9.60
2023-07-26T18:07:50.648Z,8.93
2023-07-26T18:10:18.918Z,9.23
2023-07-26T18:12:47.351Z,9.43
2023-07-26T18:15:15.896Z,9.27
2023-07-26T18:17:45.638Z,8.83
2023-07-26T18:20:14.531Z,8.17
2023-07-26T18:22:43.985Z,7.43
2023-07-26T18:25:13.171Z,8.03
2023-07-26T18:27:41.384Z,7.77
2023-07-26T18:30:10.880Z,8.47
2023-07-26T18:32:39.226Z,7.70
2023-07-26T18:35:10.202Z,8.53
2023-07-26T18:37:40.176Z,9.00
2023-07-26T18:40:10.893Z,8.60
2023-07-26T18:42:39.196Z,8.53
2023-07-26T18:45:08.848Z,9.00
2023-07-26T18:47:37.091Z,9.57
2023-07-26T18:50:05.844Z,9.50
2023-07-26T18:52:35.466Z,8.50
2023-07-26T18:55:03.710Z,8.67
2023-07-26T18:57:31.998Z,9.30
2023-07-26T19:00:01.479Z,9.90
2023-07-26T19:02:29.915Z,9.97
2023-07-26T19:04:58.264Z,9.30
2023-07-26T19:07:26.548Z,10.00
2023-07-26T19:09:58.363Z,9.70
2023-07-26T19:12:26.754Z,9.70
2023-07-26T19:14:55.026Z,9.60
2023-07-26T19:17:23.747Z,10.10
2023-07-26T19:19:52.014Z,10.10
2023-07-26T19:22:20.272Z,9.33
2023-07-26T19:24:48.593Z,9.10
2023-07-26T19:27:18.372Z,10.20
2023-07-26T19:29:46.693Z,9.40
2023-07-26T19:32:15.102Z,10.07
2023-07-26T19:34:43.317Z,9.80
2023-07-26T19:37:11.618Z,10.00
2023-07-26T19:39:39.899Z,10.40
2023-07-26T19:42:08.747Z,10.30
2023-07-26T19:44:38.302Z,11.13
2023-07-26T19:47:06.864Z,10.77
2023-07-26T19:49:35.193Z,11.07
2023-07-26T19:52:07.890Z,9.77
2023-07-26T19:54:37.654Z,10.00
2023-07-26T19:57:06.976Z,10.90
2023-07-26T19:59:35.474Z,10.90
2023-07-26T20:02:05.604Z,11.20
2023-07-26T20:04:36.855Z,12.03
2023-07-26T20:07:05.642Z,11.00
2023-07-26T20:09:34.894Z,11.30
2023-07-26T20:12:04.468Z,11.67
2023-07-26T20:14:32.920Z,12.20
2023-07-26T20:17:01.205Z,11.53
2023-07-26T20:19:30.876Z,11.63
2023-07-26T20:21:59.216Z,11.47
2023-07-26T20:24:27.456Z,11.03
2023-07-26T20:26:55.660Z,10.70
2023-07-26T20:29:26.147Z,11.80
2023-07-26T20:31:54.859Z,11.37
2023-07-26T20:34:23.155Z,11.10
2023-07-26T20:36:52.800Z,11.70
2023-07-26T20:39:21.132Z,12.17
2023-07-26T20:41:49.462Z,11.40
2023-07-26T20:44:17.693Z,11.90
2023-07-26T20:46:46.311Z,11.37
2023-07-26T20:49:14.968Z,12.93
2023-07-26T20:51:43.330Z,11.90
2023-07-26T20:54:14.021Z,11.17
2023-07-26T20:56:42.257Z,10.60
2023-07-26T20:59:10.519Z,10.80
2023-07-26T21:01:38.866Z,11.97
2023-07-26T21:04:07.143Z,11.97
2023-07-26T21:06:35.612Z,12.30
2023-07-26T21:09:05.473Z,12.60
2023-07-26T21:11:35.319Z,11.77
2023-07-26T21:14:03.986Z,11.30
2023-07-26T21:16:32.891Z,11.87
2023-07-26T21:19:01.348Z,12.37
2023-07-26T21:21:29.767Z,11.07
2023-07-26T21:23:58.084Z,10.97
2023-07-26T21:26:26.392Z,12.57
2023-07-26T21:28:56.125Z,10.13
2023-07-26T21:31:24.847Z,11.03
2023-07-26T21:33:53.200Z,9.80
2023-07-26T21:36:21.673Z,9.70
2023-07-26T21:38:50.001Z,9.10
2023-07-26T21:41:18.296Z,10.53
2023-07-26T21:43:46.659Z,9.47
2023-07-26T21:46:16.376Z,10.17
2023-07-26T21:48:44.747Z,9.20
2023-07-26T21:51:13.016Z,9.77
2023-07-26T21:53:41.459Z,9.40
2023-07-26T21:56:10.567Z,8.63
2023-07-26T21:58:38.868Z,10.57
2023-07-26T22:01:07.954Z,9.40
2023-07-26T22:03:37.698Z,8.97
2023-07-26T22:06:07.746Z,9.77
2023-07-26T22:08:38.013Z,9.00
2023-07-26T22:11:06.835Z,9.07
2023-07-26T22:13:35.457Z,8.93
2023-07-26T22:16:03.804Z,7.67
2023-07-26T22:18:33.519Z,8.40
2023-07-26T22:23:37.215Z,9.60
2023-07-26T22:26:13.420Z,8.23
2023-07-26T22:28:43.122Z,8.53
2023-07-26T22:31:11.445Z,8.53
2023-07-26T22:33:39.845Z,7.70
2023-07-26T22:36:09.515Z,8.10
2023-07-26T22:38:37.774Z,8.80
2023-07-26T22:41:07.329Z,9.90
2023-07-26T22:43:35.537Z,9.60
2023-07-26T22:46:04.784Z,9.67
2023-07-26T22:48:33.103Z,8.47
2023-07-26T22:51:01.376Z,10.83
2023-07-26T22:53:31.043Z,10.17
2023-07-26T22:56:01.005Z,9.53
2023-07-26T22:58:29.308Z,11.20
2023-07-26T23:01:01.209Z,11.13
2023-07-26T23:03:29.928Z,10.43
2023-07-26T23:05:58.670Z,10.43
2023-07-26T23:08:28.003Z,11.33
2023-07-26T23:11:01.285Z,11.93
2023-07-26T23:13:30.663Z,10.97
2023-07-26T23:16:00.272Z,10.67
2023-07-26T23:18:29.403Z,12.40
2023-07-26T23:20:58.235Z,12.07
2023-07-26T23:23:27.303Z,11.57
2023-07-26T23:25:55.558Z,12.90
2023-07-26T23:28:25.272Z,12.57
2023-07-26T23:30:54.841Z,13.10
2023-07-26T23:33:23.342Z,11.97
2023-07-26T23:35:52.078Z,12.63
2023-07-26T23:38:20.408Z,12.23
2023-07-26T23:40:48.821Z,13.37
2023-07-26T23:43:17.200Z,12.67
2023-07-26T23:45:47.444Z,13.60
2023-07-26T23:48:16.422Z,12.33
2023-07-26T23:50:45.928Z,12.37
2023-07-26T23:53:14.192Z,12.87
2023-07-26T23:55:45.134Z,11.17
2023-07-26T23:58:13.432Z,13.03
